createdAt,value
2018-10-01T00:00:01.500Z,11.60
2018-10-01T00:02:30.070Z,11.60
2018-10-01T00:04:58.647Z,11.60
2018-10-01T00:07:27.248Z,11.60
2018-10-01T00:09:55.904Z,11.60
2018-10-01T00:12:24.489Z,11.50
2018-10-01T00:14:53.098Z,11.50
2018-10-01T00:17:21.623Z,11.50
2018-10-01T00:19:55.535Z,11.40
2018-10-01T00:22:29.495Z,11.40
2018-10-01T00:24:58.086Z,11.40
2018-10-01T00:27:26.660Z,11.40
2018-10-01T00:29:55.326Z,11.40
2018-10-01T00:32:23.907Z,11.40
2018-10-01T00:34:52.588Z,11.40
2018-10-01T00:37:21.136Z,11.50
2018-10-01T00:39:49.776Z,11.40
2018-10-01T00:42:18.319Z,11.40
2018-10-01T00:44:47.085Z,11.50
2018-10-01T00:47:15.661Z,11.50
2018-10-01T00:49:44.299Z,11.50
2018-10-01T00:52:12.933Z,11.50
2018-10-01T00:54:41.512Z,11.40
2018-10-01T00:57:10.124Z,11.30
2018-10-01T00:59:38.800Z,11.40
2018-10-01T01:02:07.417Z,11.30
2018-10-01T01:04:35.999Z,11.20
2018-10-01T01:07:04.547Z,11.10
2018-10-01T01:09:33.562Z,11.20
2018-10-01T01:12:02.202Z,11.20
2018-10-01T01:14:31.371Z,11.20
2018-10-01T01:17:00.082Z,11.20
2018-10-01T01:19:28.903Z,11.20
2018-10-01T01:21:57.720Z,11.10
2018-10-01T01:24:26.554Z,11.10
2018-10-01T01:26:55.229Z,11.10
2018-10-01T01:29:23.844Z,11.00
2018-10-01T01:31:52.521Z,11.00
2018-10-01T01:34:21.167Z,11.00
2018-10-01T01:36:49.755Z,10.90
2018-10-01T01:39:18.360Z,11.00
2018-10-01T01:41:46.981Z,11.00
2018-10-01T01:44:15.637Z,11.00
2018-10-01T01:46:44.433Z,11.00
2018-10-01T01:49:13.148Z,11.00
2018-10-01T01:51:41.924Z,11.00
2018-10-01T01:54:10.498Z,11.00
2018-10-01T01:56:39.176Z,11.00
2018-10-01T01:59:08.049Z,11.00
2018-10-01T02:01:36.714Z,10.90
2018-10-01T02:04:05.421Z,11.00
2018-10-01T02:06:33.907Z,11.00
2018-10-01T02:09:02.778Z,11.00
2018-10-01T02:11:31.926Z,10.90
2018-10-01T02:14:00.501Z,10.90
2018-10-01T02:16:29.136Z,10.90
2018-10-01T02:18:57.814Z,10.90
2018-10-01T02:21:26.467Z,10.90
2018-10-01T02:23:55.142Z,10.90
2018-10-01T02:26:23.837Z,10.90
2018-10-01T02:28:52.472Z,10.90
2018-10-01T02:31:21.128Z,10.90
2018-10-01T02:33:49.892Z,10.90
2018-10-01T02:36:18.475Z,10.90
2018-10-01T02:38:47.414Z,10.90
2018-10-01T02:41:15.989Z,10.80
2018-10-01T02:43:44.705Z,10.80
2018-10-01T02:46:13.394Z,10.80
2018-10-01T02:48:42.101Z,10.80
2018-10-01T02:51:10.791Z,10.80
2018-10-01T02:53:44.599Z,10.80
2018-10-01T02:56:13.251Z,10.80
2018-10-01T02:58:41.816Z,10.80
2018-10-01T03:01:10.431Z,10.80
2018-10-01T03:03:39.066Z,10.70
2018-10-01T03:06:07.919Z,10.80
2018-10-01T03:08:36.677Z,10.70
2018-10-01T03:11:05.351Z,10.70
2018-10-01T03:13:33.947Z,10.80
2018-10-01T03:16:02.621Z,10.70
2018-10-01T03:18:31.297Z,10.70
2018-10-01T03:21:00.053Z,10.70
2018-10-01T03:23:37.509Z,10.70
2018-10-01T03:26:06.184Z,10.70
2018-10-01T03:28:34.820Z,10.70
2018-10-01T03:31:03.476Z,10.70
2018-10-01T03:33:32.161Z,10.70
2018-10-01T03:36:00.866Z,10.70
2018-10-01T03:38:29.582Z,10.60
2018-10-01T03:40:58.274Z,10.60
2018-10-01T03:43:27.051Z,10.70
2018-10-01T03:45:55.659Z,10.60
2018-10-01T03:48:24.282Z,10.60
2018-10-01T03:50:53.029Z,10.60
2018-10-01T03:53:21.827Z,10.60
2018-10-01T03:55:50.490Z,10.60
2018-10-01T03:58:19.163Z,10.50
2018-10-01T04:00:47.892Z,10.60
2018-10-01T04:03:16.691Z,10.60
2018-10-01T04:05:45.389Z,10.60
2018-10-01T04:08:14.104Z,10.60
2018-10-01T04:10:42.800Z,10.60
2018-10-01T04:13:11.456Z,10.60
2018-10-01T04:15:40.149Z,10.60
2018-10-01T04:18:08.815Z,10.60
2018-10-01T04:20:37.515Z,10.60
2018-10-01T04:23:06.235Z,10.60
2018-10-01T04:25:34.909Z,10.60
2018-10-01T04:28:03.615Z,10.60
2018-10-01T04:30:32.321Z,10.50
2018-10-01T04:33:00.976Z,10.50
2018-10-01T04:35:29.701Z,10.50
2018-10-01T04:37:58.346Z,10.50
2018-10-01T04:40:26.991Z,10.50
2018-10-01T04:42:55.549Z,10.50
2018-10-01T04:45:24.193Z,10.50
2018-10-01T04:47:53.089Z,10.50
2018-10-01T04:50:21.762Z,10.50
2018-10-01T04:52:50.597Z,10.50
2018-10-01T04:55:19.232Z,10.50
2018-10-01T04:57:47.849Z,10.50
2018-10-01T05:00:16.585Z,10.50
2018-10-01T05:02:45.319Z,10.50
2018-10-01T05:05:14.014Z,10.50
2018-10-01T05:07:42.530Z,10.60
2018-10-01T05:10:11.112Z,10.50
2018-10-01T05:12:39.899Z,10.60
2018-10-01T05:15:08.492Z,10.60
2018-10-01T05:17:37.093Z,10.60
2018-10-01T05:20:06.107Z,10.60
2018-10-01T05:22:34.850Z,10.60
2018-10-01T05:25:03.860Z,10.60
2018-10-01T05:27:32.588Z,10.60
2018-10-01T05:30:01.592Z,10.60
2018-10-01T05:32:30.480Z,10.60
2018-10-01T05:34:59.332Z,10.50
2018-10-01T05:37:27.874Z,10.50
2018-10-01T05:39:56.271Z,10.50
2018-10-01T05:42:25.161Z,10.50
2018-10-01T05:44:54.415Z,10.50
2018-10-01T05:47:23.110Z,10.50
2018-10-01T05:49:51.718Z,10.50
2018-10-01T05:52:20.442Z,10.40
2018-10-01T05:54:48.975Z,10.40
2018-10-01T05:57:17.898Z,10.40
2018-10-01T05:59:46.508Z,10.40
2018-10-01T06:02:15.224Z,10.40
2018-10-01T06:04:43.798Z,10.40
2018-10-01T06:07:12.446Z,10.50
2018-10-01T06:09:40.982Z,10.50
2018-10-01T06:12:09.549Z,10.40
2018-10-01T06:14:38.114Z,10.50
2018-10-01T06:17:06.908Z,10.50
2018-10-01T06:19:35.644Z,10.50
2018-10-01T06:22:04.324Z,10.50
2018-10-01T06:24:32.846Z,10.50
2018-10-01T06:27:01.854Z,10.60
2018-10-01T06:29:30.541Z,10.60
2018-10-01T06:31:59.658Z,10.60
2018-10-01T06:34:28.197Z,10.70
2018-10-01T06:36:56.809Z,10.70
2018-10-01T06:39:25.415Z,11.00
2018-10-01T06:41:54.220Z,11.20
2018-10-01T06:44:22.553Z,11.30
2018-10-01T06:46:51.352Z,11.30
2018-10-01T06:49:19.789Z,11.30
2018-10-01T06:51:48.497Z,11.40
2018-10-01T06:54:17.576Z,11.50
2018-10-01T06:56:46.131Z,11.50
2018-10-01T06:59:14.762Z,11.50
2018-10-01T07:01:43.310Z,11.30
2018-10-01T07:04:12.430Z,11.30
2018-10-01T07:06:40.878Z,11.40
2018-10-01T07:09:10.817Z,11.40
2018-10-01T07:11:40.137Z,12.00
2018-10-01T07:14:08.731Z,13.90
2018-10-01T07:16:37.278Z,14.70
2018-10-01T07:19:05.949Z,15.40
2018-10-01T07:21:35.453Z,15.70
2018-10-01T07:24:04.193Z,16.10
2018-10-01T07:26:32.907Z,16.20
2018-10-01T07:29:01.642Z,17.20
2018-10-01T07:31:30.204Z,17.00
2018-10-01T07:33:58.991Z,18.00
2018-10-01T07:36:34.114Z,18.00
2018-10-01T07:39:03.032Z,17.20
2018-10-01T07:41:31.616Z,16.50
2018-10-01T07:44:00.191Z,17.30
2018-10-01T07:46:29.060Z,17.90
2018-10-01T07:48:57.946Z,18.90
2018-10-01T07:51:26.717Z,20.10
2018-10-01T07:53:55.373Z,20.40
2018-10-01T07:56:24.049Z,19.90
2018-10-01T07:58:54.680Z,19.70
2018-10-01T08:01:23.264Z,19.80
2018-10-01T08:03:52.017Z,19.70
2018-10-01T08:06:21.225Z,20.00
2018-10-01T08:08:50.278Z,21.80
2018-10-01T08:11:19.619Z,20.90
2018-10-01T08:13:49.446Z,21.10
2018-10-01T08:16:21.686Z,20.50
2018-10-01T08:18:50.694Z,21.30
2018-10-01T08:21:20.019Z,20.30
2018-10-01T08:23:48.830Z,20.30
2018-10-01T08:26:18.278Z,20.30
2018-10-01T08:28:47.341Z,20.00
2018-10-01T08:31:16.493Z,18.90
2018-10-01T08:33:45.153Z,20.60
2018-10-01T08:36:15.194Z,20.80
2018-10-01T08:38:44.274Z,21.00
2018-10-01T08:41:12.854Z,20.60
2018-10-01T08:43:41.387Z,21.10
2018-10-01T08:46:11.464Z,21.90
2018-10-01T08:48:45.545Z,22.20
2018-10-01T08:51:20.634Z,22.40
2018-10-01T08:53:56.829Z,23.10
2018-10-01T08:56:25.571Z,23.10
2018-10-01T08:58:54.059Z,21.20
2018-10-01T09:01:22.865Z,20.70
2018-10-01T09:03:51.751Z,20.70
2018-10-01T09:06:20.523Z,20.80
2018-10-01T09:08:49.259Z,22.00
2018-10-01T09:11:18.559Z,22.30
2018-10-01T09:13:46.990Z,22.30
2018-10-01T09:16:15.512Z,22.10
2018-10-01T09:18:44.256Z,21.70
2018-10-01T09:21:12.753Z,23.50
2018-10-01T09:23:41.596Z,23.30
2018-10-01T09:26:10.355Z,22.50
2018-10-01T09:28:39.636Z,22.70
2018-10-01T09:31:08.362Z,20.40
2018-10-01T09:33:37.002Z,19.90
2018-10-01T09:36:05.980Z,18.60
2018-10-01T09:38:34.591Z,17.90
2018-10-01T09:41:03.338Z,17.90
2018-10-01T09:43:32.427Z,18.40
2018-10-01T09:46:01.067Z,17.50
2018-10-01T09:48:31.644Z,17.50
2018-10-01T09:51:00.191Z,18.80
2018-10-01T09:53:29.595Z,17.40
2018-10-01T09:55:58.565Z,17.10
2018-10-01T09:58:27.499Z,16.60
2018-10-01T10:01:02.071Z,16.10
2018-10-01T10:03:30.828Z,15.90
2018-10-01T10:05:59.567Z,16.00
2018-10-01T10:08:28.389Z,15.80
2018-10-01T10:10:57.151Z,15.70
2018-10-01T10:13:25.773Z,14.90
2018-10-01T10:15:54.422Z,14.60
2018-10-01T10:18:23.263Z,14.60
2018-10-01T10:20:52.571Z,15.40
2018-10-01T10:23:23.366Z,15.90
2018-10-01T10:25:51.931Z,15.70
2018-10-01T10:28:20.856Z,16.00
2018-10-01T10:30:49.540Z,16.50
2018-10-01T10:33:18.035Z,16.10
2018-10-01T10:35:46.579Z,16.10
2018-10-01T10:38:15.275Z,16.00
2018-10-01T10:40:44.244Z,15.20
2018-10-01T10:43:13.405Z,14.40
2018-10-01T10:45:42.279Z,14.40
2018-10-01T10:48:10.851Z,15.20
2018-10-01T10:50:40.020Z,15.60
2018-10-01T10:53:09.000Z,16.00
2018-10-01T10:55:37.686Z,15.80
2018-10-01T10:58:07.971Z,16.40
2018-10-01T11:00:36.490Z,16.20
2018-10-01T11:03:05.263Z,15.80
2018-10-01T11:05:34.680Z,15.40
2018-10-01T11:08:03.204Z,15.20
2018-10-01T11:10:32.008Z,15.30
2018-10-01T11:13:00.925Z,15.70
2018-10-01T11:15:29.577Z,15.80
2018-10-01T11:17:58.112Z,15.70
2018-10-01T11:20:26.731Z,15.40
2018-10-01T11:22:55.041Z,14.90
2018-10-01T11:25:23.586Z,14.10
2018-10-01T11:27:52.883Z,13.20
2018-10-01T11:30:23.240Z,12.60
2018-10-01T11:32:52.330Z,12.20
2018-10-01T11:35:21.130Z,12.30
2018-10-01T11:37:49.642Z,12.10
2018-10-01T11:40:18.993Z,11.80
2018-10-01T11:42:47.742Z,11.80
2018-10-01T11:45:16.946Z,12.00
2018-10-01T11:47:45.656Z,12.10
2018-10-01T11:50:14.932Z,12.00
2018-10-01T11:52:43.506Z,12.00
2018-10-01T11:55:11.941Z,12.00
2018-10-01T11:57:40.514Z,11.70
2018-10-01T12:00:09.725Z,12.20
2018-10-01T12:02:38.150Z,12.40
2018-10-01T12:05:07.579Z,12.80
2018-10-01T12:07:36.142Z,13.30
2018-10-01T12:10:04.825Z,13.40
2018-10-01T12:12:33.321Z,13.40
2018-10-01T12:15:05.016Z,13.70
2018-10-01T12:17:33.553Z,13.70
2018-10-01T12:20:07.759Z,13.80
2018-10-01T12:22:36.572Z,13.70
2018-10-01T12:25:05.791Z,13.70
2018-10-01T12:27:34.523Z,13.60
2018-10-01T12:30:03.106Z,13.20
2018-10-01T12:32:31.759Z,13.40
2018-10-01T12:35:00.830Z,13.60
2018-10-01T12:37:31.435Z,13.70
2018-10-01T12:40:00.526Z,13.80
2018-10-01T12:42:29.396Z,13.80
2018-10-01T12:44:58.923Z,13.60
2018-10-01T12:47:27.524Z,13.30
2018-10-01T12:49:56.055Z,12.90
2018-10-01T12:52:24.512Z,12.50
2018-10-01T12:54:52.973Z,12.10
2018-10-01T12:57:21.457Z,12.00
2018-10-01T12:59:51.290Z,12.00
2018-10-01T13:02:20.443Z,12.40
2018-10-01T13:04:48.878Z,12.30
2018-10-01T13:07:17.251Z,12.50
2018-10-01T13:09:45.882Z,12.60
2018-10-01T13:12:15.106Z,13.10
2018-10-01T13:14:43.460Z,13.00
2018-10-01T13:17:12.077Z,13.10
2018-10-01T13:19:41.208Z,13.20
2018-10-01T13:22:10.768Z,13.10
2018-10-01T13:24:39.668Z,13.10
2018-10-01T13:27:08.084Z,13.20
2018-10-01T13:29:37.773Z,13.10
2018-10-01T13:32:06.388Z,13.20
2018-10-01T13:34:35.369Z,13.30
2018-10-01T13:37:04.547Z,13.30
2018-10-01T13:39:34.543Z,13.10
2018-10-01T13:42:03.313Z,12.80
2018-10-01T13:44:32.510Z,12.60
2018-10-01T13:47:00.875Z,12.80
2018-10-01T13:49:29.424Z,13.00
2018-10-01T13:51:58.516Z,13.50
2018-10-01T13:54:27.302Z,13.50
2018-10-01T13:56:55.912Z,13.60
2018-10-01T13:59:24.565Z,13.80
2018-10-01T14:01:53.242Z,13.70
2018-10-01T14:04:21.712Z,13.80
2018-10-01T14:06:50.464Z,13.90
2018-10-01T14:09:19.539Z,14.20
2018-10-01T14:11:48.326Z,14.30
2018-10-01T14:14:16.792Z,14.50
2018-10-01T14:16:45.428Z,14.70
2018-10-01T14:19:15.114Z,14.90
2018-10-01T14:21:44.816Z,15.00
2018-10-01T14:24:13.782Z,14.80
2018-10-01T14:26:43.589Z,14.20
2018-10-01T14:29:12.377Z,13.90
2018-10-01T14:31:42.648Z,13.10
2018-10-01T14:34:11.793Z,12.20
2018-10-01T14:36:40.843Z,11.70
2018-10-01T14:39:10.053Z,11.80
2018-10-01T14:41:38.592Z,12.00
2018-10-01T14:44:07.006Z,12.40
2018-10-01T14:46:36.326Z,12.50
2018-10-01T14:49:04.856Z,12.40
2018-10-01T14:51:34.499Z,12.50
2018-10-01T14:54:03.251Z,12.70
2018-10-01T14:56:33.089Z,12.90
2018-10-01T14:59:02.382Z,12.90
2018-10-01T15:01:31.328Z,13.10
2018-10-01T15:04:00.650Z,13.40
2018-10-01T15:06:29.759Z,13.60
2018-10-01T15:08:58.451Z,13.30
2018-10-01T15:11:26.999Z,13.10
2018-10-01T15:13:56.032Z,13.00
2018-10-01T15:16:25.382Z,13.00
2018-10-01T15:18:54.274Z,12.90
2018-10-01T15:21:23.537Z,12.90
2018-10-01T15:23:52.236Z,12.80
2018-10-01T15:26:20.986Z,12.60
2018-10-01T15:28:49.441Z,12.30
2018-10-01T15:31:17.988Z,12.30
2018-10-01T15:33:46.770Z,12.20
2018-10-01T15:36:15.947Z,12.30
2018-10-01T15:38:44.395Z,12.40
2018-10-01T15:41:13.074Z,12.40
2018-10-01T15:43:41.751Z,12.30
2018-10-01T15:46:10.462Z,12.20
2018-10-01T15:48:39.952Z,12.10
2018-10-01T15:51:08.655Z,12.10
2018-10-01T15:53:37.113Z,12.10
2018-10-01T15:56:05.875Z,12.10
2018-10-01T15:58:34.805Z,12.10
2018-10-01T16:01:03.420Z,12.00
2018-10-01T16:03:31.967Z,12.10
2018-10-01T16:06:00.508Z,12.10
2018-10-01T16:08:29.360Z,12.20
2018-10-01T16:10:58.054Z,12.20
2018-10-01T16:13:26.605Z,12.40
2018-10-01T16:15:55.385Z,12.50
2018-10-01T16:18:24.512Z,12.40
2018-10-01T16:20:53.254Z,12.20
2018-10-01T16:23:21.861Z,12.20
2018-10-01T16:25:50.315Z,12.20
2018-10-01T16:28:19.004Z,12.00
2018-10-01T16:30:47.611Z,11.90
2018-10-01T16:33:16.153Z,11.90
2018-10-01T16:35:44.571Z,11.80
2018-10-01T16:38:13.078Z,11.70
2018-10-01T16:40:42.015Z,11.50
2018-10-01T16:43:10.865Z,11.50
2018-10-01T16:45:39.522Z,11.40
2018-10-01T16:48:08.198Z,11.10
2018-10-01T16:50:36.912Z,11.20
2018-10-01T16:53:05.615Z,11.10
2018-10-01T16:55:34.253Z,11.20
2018-10-01T16:58:04.043Z,11.20
2018-10-01T17:00:32.532Z,11.10
2018-10-01T17:03:01.291Z,10.90
2018-10-01T17:05:29.982Z,10.80
2018-10-01T17:07:58.639Z,10.80
2018-10-01T17:10:27.108Z,10.60
2018-10-01T17:12:55.726Z,10.50
2018-10-01T17:15:25.038Z,10.30
2018-10-01T17:17:53.497Z,10.20
2018-10-01T17:20:22.056Z,10.10
2018-10-01T17:22:50.928Z,9.90
2018-10-01T17:25:21.500Z,9.60
2018-10-01T17:27:50.506Z,9.50
2018-10-01T17:30:19.153Z,9.40
2018-10-01T17:32:48.003Z,9.40
2018-10-01T17:35:16.662Z,9.40
2018-10-01T17:37:45.337Z,9.30
2018-10-01T17:40:14.052Z,9.20
2018-10-01T17:42:42.747Z,9.10
2018-10-01T17:45:11.607Z,9.00
2018-10-01T17:47:40.356Z,9.00
2018-10-01T17:50:09.073Z,9.00
2018-10-01T17:52:37.747Z,9.00
2018-10-01T17:55:06.817Z,9.00
2018-10-01T17:57:36.800Z,9.10
2018-10-01T18:00:06.369Z,9.00
2018-10-01T18:02:34.960Z,8.80
2018-10-01T18:05:03.943Z,8.80
2018-10-01T18:07:32.718Z,8.70
2018-10-01T18:10:01.416Z,8.60
2018-10-01T18:12:30.029Z,8.60
2018-10-01T18:14:58.893Z,8.60
2018-10-01T18:17:27.517Z,8.50
2018-10-01T18:19:56.533Z,8.40
2018-10-01T18:22:25.187Z,8.40
2018-10-01T18:24:53.823Z,8.30
2018-10-01T18:27:22.638Z,8.30
2018-10-01T18:29:51.197Z,8.30
2018-10-01T18:32:19.789Z,8.30
2018-10-01T18:34:48.503Z,8.20
2018-10-01T18:37:17.478Z,8.20
2018-10-01T18:39:46.189Z,8.10
2018-10-01T18:42:14.815Z,8.10
2018-10-01T18:44:43.403Z,8.10
2018-10-01T18:47:12.177Z,8.00
2018-10-01T18:49:41.074Z,8.00
2018-10-01T18:52:09.549Z,8.00
2018-10-01T18:54:38.067Z,7.90
2018-10-01T18:57:06.524Z,7.90
2018-10-01T18:59:35.333Z,7.80
2018-10-01T19:02:04.133Z,7.80
2018-10-01T19:04:32.846Z,7.80
2018-10-01T19:07:01.375Z,7.70
2018-10-01T19:09:29.854Z,7.70
2018-10-01T19:11:58.430Z,7.60
2018-10-01T19:14:26.850Z,7.60
2018-10-01T19:16:55.473Z,7.60
2018-10-01T19:19:24.333Z,7.50
2018-10-01T19:21:52.989Z,7.50
2018-10-01T19:24:21.554Z,7.50
2018-10-01T19:26:50.366Z,7.60
2018-10-01T19:29:19.055Z,7.60
2018-10-01T19:31:47.656Z,7.60
2018-10-01T19:34:16.401Z,7.70
2018-10-01T19:36:44.922Z,7.70
2018-10-01T19:39:13.507Z,7.80
2018-10-01T19:41:42.053Z,7.90
2018-10-01T19:44:10.814Z,8.00
2018-10-01T19:46:39.392Z,8.00
2018-10-01T19:49:08.017Z,8.00
2018-10-01T19:51:36.532Z,8.00
2018-10-01T19:54:05.128Z,8.10
2018-10-01T19:56:33.973Z,8.20
2018-10-01T19:59:02.986Z,8.20
2018-10-01T20:01:31.612Z,8.20
2018-10-01T20:04:00.082Z,8.10
2018-10-01T20:06:28.782Z,8.10
2018-10-01T20:08:57.745Z,8.10
2018-10-01T20:11:26.473Z,8.00
2018-10-01T20:13:55.088Z,8.00
2018-10-01T20:16:23.864Z,8.00
2018-10-01T20:18:52.888Z,7.80
2018-10-01T20:21:21.701Z,7.70
2018-10-01T20:23:50.388Z,7.80
2018-10-01T20:26:19.003Z,7.70
2018-10-01T20:28:47.902Z,7.70
2018-10-01T20:31:16.131Z,7.60
2018-10-01T20:33:44.776Z,7.50
2018-10-01T20:36:13.289Z,7.50
2018-10-01T20:38:41.872Z,7.30
2018-10-01T20:41:10.662Z,7.20
2018-10-01T20:43:39.512Z,7.10
2018-10-01T20:46:08.374Z,7.10
2018-10-01T20:48:37.018Z,7.10
2018-10-01T20:51:05.855Z,7.00
2018-10-01T20:53:34.501Z,6.90
2018-10-01T20:56:03.087Z,6.80
2018-10-01T20:58:31.740Z,6.80
2018-10-01T21:01:00.335Z,6.80
2018-10-01T21:03:29.073Z,6.70
2018-10-01T21:05:57.845Z,6.70
2018-10-01T21:08:26.503Z,6.70
2018-10-01T21:10:55.101Z,6.80
2018-10-01T21:13:23.767Z,6.90
2018-10-01T21:15:52.525Z,6.90
2018-10-01T21:18:21.111Z,6.90
2018-10-01T21:20:49.875Z,7.00
2018-10-01T21:23:18.334Z,6.90
2018-10-01T21:25:46.805Z,6.90
2018-10-01T21:28:15.496Z,6.80
2018-10-01T21:30:44.174Z,6.70
2018-10-01T21:33:12.703Z,6.70
2018-10-01T21:35:41.386Z,6.70
2018-10-01T21:38:10.121Z,6.70
2018-10-01T21:40:38.749Z,6.70
2018-10-01T21:43:07.464Z,6.70
2018-10-01T21:45:36.148Z,6.70
2018-10-01T21:48:04.675Z,6.70
2018-10-01T21:50:33.499Z,6.70
2018-10-01T21:53:02.294Z,6.70
2018-10-01T21:55:30.959Z,6.70
2018-10-01T21:57:59.512Z,6.60
2018-10-01T22:00:32.368Z,6.70
2018-10-01T22:03:00.933Z,6.80
2018-10-01T22:05:29.632Z,6.80
2018-10-01T22:07:58.417Z,6.90
2018-10-01T22:10:27.138Z,7.00
2018-10-01T22:12:55.726Z,7.00
2018-10-01T22:15:24.265Z,7.10
2018-10-01T22:17:53.053Z,7.10
2018-10-01T22:20:21.498Z,7.10
2018-10-01T22:22:50.034Z,7.10
2018-10-01T22:25:18.829Z,7.20
2018-10-01T22:27:47.543Z,7.30
2018-10-01T22:30:16.079Z,7.40
2018-10-01T22:32:44.683Z,7.50
2018-10-01T22:35:13.269Z,7.50
2018-10-01T22:37:41.861Z,7.50
2018-10-01T22:40:10.839Z,7.60
2018-10-01T22:42:39.514Z,7.60
2018-10-01T22:45:08.097Z,7.70
2018-10-01T22:47:36.828Z,7.70
2018-10-01T22:50:05.970Z,7.60
2018-10-01T22:52:34.614Z,7.70
2018-10-01T22:55:03.308Z,7.60
2018-10-01T22:57:31.916Z,7.70
2018-10-01T23:00:00.561Z,7.70
2018-10-01T23:02:29.234Z,7.80
2018-10-01T23:04:57.668Z,7.90
2018-10-01T23:07:26.339Z,7.90
2018-10-01T23:09:55.020Z,7.80
2018-10-01T23:12:23.714Z,7.90
2018-10-01T23:14:52.310Z,8.00
2018-10-01T23:17:20.937Z,8.00
2018-10-01T23:19:49.599Z,8.10
2018-10-01T23:22:18.335Z,8.00
2018-10-01T23:24:46.948Z,7.90
2018-10-01T23:27:15.644Z,7.90
2018-10-01T23:29:44.231Z,7.90
2018-10-01T23:32:12.791Z,8.00
2018-10-01T23:34:41.430Z,8.00
2018-10-01T23:37:10.105Z,8.00
2018-10-01T23:39:39.021Z,8.00
2018-10-01T23:42:07.660Z,8.00
2018-10-01T23:44:36.301Z,8.10
2018-10-01T23:47:07.986Z,8.00
2018-10-01T23:49:36.680Z,8.00
2018-10-01T23:52:05.314Z,8.00
2018-10-01T23:54:33.909Z,8.00
2018-10-01T23:57:02.525Z,8.00
2018-10-01T23:59:31.261Z,8.00
